sensor_id;sensor_type;location;lat;lon;timestamp;P1;durP1;ratioP1;P2;durP2;ratioP2
53931;SDS011;39844;52.496;13.482;2023-05-07T00:00:56;4.83;;;4.33;;
53931;SDS011;39844;52.496;13.482;2023-05-07T00:03:22;7.40;;;5.30;;
53931;SDS011;39844;52.496;13.482;2023-05-07T00:05:47;6.73;;;3.93;;
53931;SDS011;39844;52.496;13.482;2023-05-07T00:08:12;4.37;;;3.73;;
53931;SDS011;39844;52.496;13.482;2023-05-07T00:10:38;8.00;;;4.87;;
53931;SDS011;39844;52.496;13.482;2023-05-07T00:13:03;5.83;;;4.67;;
53931;SDS011;39844;52.496;13.482;2023-05-07T00:15:28;5.60;;;4.50;;
53931;SDS011;39844;52.496;13.482;2023-05-07T00:17:53;5.00;;;4.10;;
53931;SDS011;39844;52.496;13.482;2023-05-07T00:20:19;5.77;;;4.20;;
53931;SDS011;39844;52.496;13.482;2023-05-07T00:22:44;4.30;;;3.73;;
53931;SDS011;39844;52.496;13.482;2023-05-07T00:25:09;5.33;;;4.37;;
53931;SDS011;39844;52.496;13.482;2023-05-07T00:27:35;4.67;;;4.13;;
53931;SDS011;39844;52.496;13.482;2023-05-07T00:30:00;6.17;;;4.27;;
53931;SDS011;39844;52.496;13.482;2023-05-07T00:32:25;5.20;;;4.20;;
53931;SDS011;39844;52.496;13.482;2023-05-07T00:34:51;5.40;;;4.13;;
53931;SDS011;39844;52.496;13.482;2023-05-07T00:37:16;4.57;;;4.00;;
53931;SDS011;39844;52.496;13.482;2023-05-07T00:39:41;6.50;;;4.40;;
53931;SDS011;39844;52.496;13.482;2023-05-07T00:42:06;7.30;;;4.50;;
53931;SDS011;39844;52.496;13.482;2023-05-07T00:44:32;4.67;;;4.27;;
53931;SDS011;39844;52.496;13.482;2023-05-07T00:46:57;7.03;;;3.90;;
53931;SDS011;39844;52.496;13.482;2023-05-07T00:49:24;4.90;;;3.90;;
53931;SDS011;39844;52.496;13.482;2023-05-07T00:52:02;5.73;;;4.10;;
53931;SDS011;39844;52.496;13.482;2023-05-07T00:54:27;10.87;;;4.43;;
53931;SDS011;39844;52.496;13.482;2023-05-07T00:56:53;4.40;;;3.93;;
53931;SDS011;39844;52.496;13.482;2023-05-07T00:59:19;6.60;;;4.03;;
53931;SDS011;39844;52.496;13.482;2023-05-07T01:01:45;8.50;;;4.57;;
53931;SDS011;39844;52.496;13.482;2023-05-07T01:04:10;5.23;;;4.57;;
53931;SDS011;39844;52.496;13.482;2023-05-07T01:06:35;7.50;;;5.63;;
53931;SDS011;39844;52.496;13.482;2023-05-07T01:09:01;8.77;;;4.93;;
53931;SDS011;39844;52.496;13.482;2023-05-07T01:11:26;5.10;;;4.60;;
53931;SDS011;39844;52.496;13.482;2023-05-07T01:13:52;5.40;;;4.10;;
53931;SDS011;39844;52.496;13.482;2023-05-07T01:16:18;4.67;;;4.10;;
53931;SDS011;39844;52.496;13.482;2023-05-07T01:18:43;4.97;;;3.97;;
53931;SDS011;39844;52.496;13.482;2023-05-07T01:21:09;6.93;;;4.40;;
53931;SDS011;39844;52.496;13.482;2023-05-07T01:23:36;5.27;;;4.27;;
53931;SDS011;39844;52.496;13.482;2023-05-07T01:26:02;5.20;;;4.47;;
53931;SDS011;39844;52.496;13.482;2023-05-07T01:28:27;5.07;;;4.33;;
53931;SDS011;39844;52.496;13.482;2023-05-07T01:30:53;3.80;;;3.50;;
53931;SDS011;39844;52.496;13.482;2023-05-07T01:33:24;4.63;;;3.80;;
53931;SDS011;39844;52.496;13.482;2023-05-07T01:35:53;4.47;;;4.03;;
53931;SDS011;39844;52.496;13.482;2023-05-07T01:38:18;5.53;;;3.83;;
53931;SDS011;39844;52.496;13.482;2023-05-07T01:40:45;6.70;;;4.40;;
53931;SDS011;39844;52.496;13.482;2023-05-07T01:43:11;5.97;;;4.27;;
53931;SDS011;39844;52.496;13.482;2023-05-07T01:45:37;5.37;;;3.90;;
53931;SDS011;39844;52.496;13.482;2023-05-07T01:48:03;4.93;;;3.87;;
53931;SDS011;39844;52.496;13.482;2023-05-07T01:50:29;4.77;;;4.10;;
53931;SDS011;39844;52.496;13.482;2023-05-07T01:52:56;4.03;;;3.67;;
53931;SDS011;39844;52.496;13.482;2023-05-07T01:55:21;4.40;;;4.00;;
53931;SDS011;39844;52.496;13.482;2023-05-07T01:57:47;5.90;;;4.23;;
53931;SDS011;39844;52.496;13.482;2023-05-07T02:00:12;3.77;;;3.37;;
53931;SDS011;39844;52.496;13.482;2023-05-07T02:02:38;5.33;;;3.47;;
53931;SDS011;39844;52.496;13.482;2023-05-07T02:05:03;6.17;;;4.10;;
53931;SDS011;39844;52.496;13.482;2023-05-07T02:07:29;5.20;;;4.07;;
53931;SDS011;39844;52.496;13.482;2023-05-07T02:09:54;8.07;;;3.80;;
53931;SDS011;39844;52.496;13.482;2023-05-07T02:12:19;5.37;;;4.70;;
53931;SDS011;39844;52.496;13.482;2023-05-07T02:14:45;5.37;;;4.17;;
53931;SDS011;39844;52.496;13.482;2023-05-07T02:17:10;11.33;;;4.70;;
53931;SDS011;39844;52.496;13.482;2023-05-07T02:19:35;4.13;;;3.77;;
53931;SDS011;39844;52.496;13.482;2023-05-07T02:22:01;3.80;;;3.40;;
53931;SDS011;39844;52.496;13.482;2023-05-07T02:24:26;6.07;;;4.53;;
53931;SDS011;39844;52.496;13.482;2023-05-07T02:26:51;7.90;;;4.47;;
53931;SDS011;39844;52.496;13.482;2023-05-07T02:29:16;6.80;;;4.50;;
53931;SDS011;39844;52.496;13.482;2023-05-07T02:31:42;5.40;;;4.20;;
53931;SDS011;39844;52.496;13.482;2023-05-07T02:34:07;4.73;;;4.27;;
53931;SDS011;39844;52.496;13.482;2023-05-07T02:36:32;7.70;;;4.17;;
53931;SDS011;39844;52.496;13.482;2023-05-07T02:38:58;6.07;;;4.20;;
53931;SDS011;39844;52.496;13.482;2023-05-07T02:41:23;4.83;;;4.07;;
53931;SDS011;39844;52.496;13.482;2023-05-07T02:43:48;6.87;;;3.90;;
53931;SDS011;39844;52.496;13.482;2023-05-07T02:46:14;5.07;;;3.97;;
53931;SDS011;39844;52.496;13.482;2023-05-07T02:48:39;4.97;;;3.80;;
53931;SDS011;39844;52.496;13.482;2023-05-07T02:51:04;5.57;;;4.30;;
53931;SDS011;39844;52.496;13.482;2023-05-07T02:53:30;6.17;;;3.93;;
53931;SDS011;39844;52.496;13.482;2023-05-07T02:55:55;4.37;;;3.83;;
53931;SDS011;39844;52.496;13.482;2023-05-07T02:58:22;6.60;;;4.63;;
53931;SDS011;39844;52.496;13.482;2023-05-07T03:00:47;4.73;;;3.93;;
53931;SDS011;39844;52.496;13.482;2023-05-07T03:03:13;4.20;;;3.80;;
53931;SDS011;39844;52.496;13.482;2023-05-07T03:05:38;5.07;;;4.07;;
53931;SDS011;39844;52.496;13.482;2023-05-07T03:08:06;3.77;;;3.47;;
53931;SDS011;39844;52.496;13.482;2023-05-07T03:10:32;4.43;;;3.70;;
53931;SDS011;39844;52.496;13.482;2023-05-07T03:12:57;4.17;;;3.40;;
53931;SDS011;39844;52.496;13.482;2023-05-07T03:15:22;4.57;;;4.17;;
53931;SDS011;39844;52.496;13.482;2023-05-07T03:17:48;5.40;;;3.93;;
53931;SDS011;39844;52.496;13.482;2023-05-07T03:20:13;4.03;;;3.60;;
53931;SDS011;39844;52.496;13.482;2023-05-07T03:22:39;4.50;;;4.07;;
53931;SDS011;39844;52.496;13.482;2023-05-07T03:25:05;4.53;;;3.50;;
53931;SDS011;39844;52.496;13.482;2023-05-07T03:27:31;4.70;;;3.70;;
53931;SDS011;39844;52.496;13.482;2023-05-07T03:29:56;4.57;;;3.67;;
53931;SDS011;39844;52.496;13.482;2023-05-07T03:32:21;6.17;;;4.47;;
53931;SDS011;39844;52.496;13.482;2023-05-07T03:34:47;5.97;;;4.40;;
53931;SDS011;39844;52.496;13.482;2023-05-07T03:37:12;4.20;;;3.77;;
53931;SDS011;39844;52.496;13.482;2023-05-07T03:39:37;5.17;;;4.07;;
53931;SDS011;39844;52.496;13.482;2023-05-07T03:42:03;4.33;;;3.90;;
53931;SDS011;39844;52.496;13.482;2023-05-07T03:44:28;7.97;;;4.40;;
53931;SDS011;39844;52.496;13.482;2023-05-07T03:46:53;5.47;;;4.50;;
53931;SDS011;39844;52.496;13.482;2023-05-07T03:49:19;4.47;;;3.50;;
53931;SDS011;39844;52.496;13.482;2023-05-07T03:51:44;4.17;;;3.87;;
53931;SDS011;39844;52.496;13.482;2023-05-07T03:54:09;6.07;;;4.20;;
53931;SDS011;39844;52.496;13.482;2023-05-07T03:56:35;4.60;;;4.20;;
53931;SDS011;39844;52.496;13.482;2023-05-07T03:59:00;6.00;;;3.97;;
53931;SDS011;39844;52.496;13.482;2023-05-07T04:01:26;5.33;;;3.97;;
53931;SDS011;39844;52.496;13.482;2023-05-07T04:03:51;4.83;;;4.20;;
53931;SDS011;39844;52.496;13.482;2023-05-07T04:06:16;3.97;;;3.63;;
53931;SDS011;39844;52.496;13.482;2023-05-07T04:08:42;5.23;;;3.83;;
53931;SDS011;39844;52.496;13.482;2023-05-07T04:11:07;4.80;;;3.77;;
53931;SDS011;39844;52.496;13.482;2023-05-07T04:13:32;5.67;;;4.03;;
53931;SDS011;39844;52.496;13.482;2023-05-07T04:15:58;4.40;;;4.00;;
53931;SDS011;39844;52.496;13.482;2023-05-07T04:18:23;5.00;;;4.00;;
53931;SDS011;39844;52.496;13.482;2023-05-07T04:20:49;5.53;;;4.00;;
53931;SDS011;39844;52.496;13.482;2023-05-07T04:23:14;5.00;;;3.70;;
53931;SDS011;39844;52.496;13.482;2023-05-07T04:25:39;3.73;;;3.43;;
53931;SDS011;39844;52.496;13.482;2023-05-07T04:28:05;3.73;;;3.37;;
53931;SDS011;39844;52.496;13.482;2023-05-07T04:30:30;3.97;;;3.33;;
53931;SDS011;39844;52.496;13.482;2023-05-07T04:32:55;5.70;;;3.67;;
53931;SDS011;39844;52.496;13.482;2023-05-07T04:35:21;7.80;;;4.10;;
53931;SDS011;39844;52.496;13.482;2023-05-07T04:37:46;3.97;;;3.57;;
53931;SDS011;39844;52.496;13.482;2023-05-07T04:40:11;5.13;;;3.80;;
53931;SDS011;39844;52.496;13.482;2023-05-07T04:42:37;6.63;;;3.73;;
53931;SDS011;39844;52.496;13.482;2023-05-07T04:45:02;3.80;;;3.40;;
53931;SDS011;39844;52.496;13.482;2023-05-07T04:47:28;3.60;;;3.30;;
53931;SDS011;39844;52.496;13.482;2023-05-07T04:49:53;4.23;;;3.23;;
53931;SDS011;39844;52.496;13.482;2023-05-07T04:52:18;4.20;;;3.00;;
53931;SDS011;39844;52.496;13.482;2023-05-07T04:54:43;9.00;;;4.57;;
53931;SDS011;39844;52.496;13.482;2023-05-07T04:57:09;3.17;;;2.97;;
53931;SDS011;39844;52.496;13.482;2023-05-07T04:59:34;3.80;;;3.40;;
53931;SDS011;39844;52.496;13.482;2023-05-07T05:01:59;6.77;;;3.30;;
53931;SDS011;39844;52.496;13.482;2023-05-07T05:04:25;4.40;;;2.67;;
53931;SDS011;39844;52.496;13.482;2023-05-07T05:06:50;3.10;;;2.80;;
53931;SDS011;39844;52.496;13.482;2023-05-07T05:09:15;4.30;;;2.90;;
53931;SDS011;39844;52.496;13.482;2023-05-07T05:11:41;4.10;;;3.07;;
53931;SDS011;39844;52.496;13.482;2023-05-07T05:14:06;5.30;;;3.40;;
53931;SDS011;39844;52.496;13.482;2023-05-07T05:16:31;5.10;;;3.00;;
53931;SDS011;39844;52.496;13.482;2023-05-07T05:18:56;3.73;;;3.33;;
53931;SDS011;39844;52.496;13.482;2023-05-07T05:21:22;3.53;;;3.23;;
53931;SDS011;39844;52.496;13.482;2023-05-07T05:23:47;3.33;;;3.03;;
53931;SDS011;39844;52.496;13.482;2023-05-07T05:26:12;4.67;;;3.37;;
53931;SDS011;39844;52.496;13.482;2023-05-07T05:28:38;3.73;;;3.43;;
53931;SDS011;39844;52.496;13.482;2023-05-07T05:31:04;3.80;;;3.50;;
53931;SDS011;39844;52.496;13.482;2023-05-07T05:33:30;3.63;;;3.33;;
53931;SDS011;39844;52.496;13.482;2023-05-07T05:35:55;3.70;;;3.30;;
53931;SDS011;39844;52.496;13.482;2023-05-07T05:38:20;5.73;;;3.40;;
53931;SDS011;39844;52.496;13.482;2023-05-07T05:40:46;3.80;;;3.43;;
53931;SDS011;39844;52.496;13.482;2023-05-07T05:43:11;3.67;;;3.37;;
53931;SDS011;39844;52.496;13.482;2023-05-07T05:45:37;4.10;;;3.10;;
53931;SDS011;39844;52.496;13.482;2023-05-07T05:48:02;4.23;;;3.60;;
53931;SDS011;39844;52.496;13.482;2023-05-07T05:50:27;4.30;;;3.40;;
53931;SDS011;39844;52.496;13.482;2023-05-07T05:52:53;3.70;;;3.40;;
53931;SDS011;39844;52.496;13.482;2023-05-07T05:55:18;5.03;;;3.30;;
53931;SDS011;39844;52.496;13.482;2023-05-07T05:57:44;5.13;;;3.33;;
53931;SDS011;39844;52.496;13.482;2023-05-07T06:00:09;3.37;;;3.00;;
53931;SDS011;39844;52.496;13.482;2023-05-07T06:02:35;3.63;;;2.90;;
53931;SDS011;39844;52.496;13.482;2023-05-07T06:05:00;3.27;;;3.03;;
53931;SDS011;39844;52.496;13.482;2023-05-07T06:07:25;4.03;;;3.20;;
53931;SDS011;39844;52.496;13.482;2023-05-07T06:09:51;4.13;;;3.73;;
53931;SDS011;39844;52.496;13.482;2023-05-07T06:12:16;3.70;;;3.17;;
53931;SDS011;39844;52.496;13.482;2023-05-07T06:14:44;3.93;;;3.27;;
53931;SDS011;39844;52.496;13.482;2023-05-07T06:17:09;4.13;;;3.57;;
53931;SDS011;39844;52.496;13.482;2023-05-07T06:19:35;3.83;;;3.43;;
53931;SDS011;39844;52.496;13.482;2023-05-07T06:22:00;4.83;;;3.80;;
53931;SDS011;39844;52.496;13.482;2023-05-07T06:24:25;4.53;;;3.07;;
53931;SDS011;39844;52.496;13.482;2023-05-07T06:26:51;3.13;;;2.83;;
53931;SDS011;39844;52.496;13.482;2023-05-07T06:29:16;3.57;;;3.27;;
53931;SDS011;39844;52.496;13.482;2023-05-07T06:31:41;5.07;;;3.17;;
53931;SDS011;39844;52.496;13.482;2023-05-07T06:34:07;5.33;;;3.50;;
53931;SDS011;39844;52.496;13.482;2023-05-07T06:36:32;4.70;;;3.43;;
53931;SDS011;39844;52.496;13.482;2023-05-07T06:38:58;3.87;;;3.43;;
53931;SDS011;39844;52.496;13.482;2023-05-07T06:41:23;3.60;;;3.30;;
53931;SDS011;39844;52.496;13.482;2023-05-07T06:43:48;3.80;;;2.80;;
53931;SDS011;39844;52.496;13.482;2023-05-07T06:46:14;4.13;;;3.30;;
53931;SDS011;39844;52.496;13.482;2023-05-07T06:48:39;3.43;;;3.07;;
53931;SDS011;39844;52.496;13.482;2023-05-07T06:51:04;4.37;;;3.60;;
53931;SDS011;39844;52.496;13.482;2023-05-07T06:53:30;3.40;;;3.10;;
53931;SDS011;39844;52.496;13.482;2023-05-07T06:55:55;3.27;;;2.97;;
53931;SDS011;39844;52.496;13.482;2023-05-07T06:58:20;3.90;;;3.30;;
53931;SDS011;39844;52.496;13.482;2023-05-07T07:00:45;5.97;;;3.20;;
53931;SDS011;39844;52.496;13.482;2023-05-07T07:03:11;4.43;;;3.30;;
53931;SDS011;39844;52.496;13.482;2023-05-07T07:05:36;4.53;;;3.20;;
53931;SDS011;39844;52.496;13.482;2023-05-07T07:08:01;3.90;;;2.70;;
53931;SDS011;39844;52.496;13.482;2023-05-07T07:10:27;4.77;;;3.20;;
53931;SDS011;39844;52.496;13.482;2023-05-07T07:12:52;3.27;;;3.00;;
53931;SDS011;39844;52.496;13.482;2023-05-07T07:15:17;9.37;;;2.70;;
53931;SDS011;39844;52.496;13.482;2023-05-07T07:17:44;6.87;;;2.70;;
53931;SDS011;39844;52.496;13.482;2023-05-07T07:20:09;2.90;;;2.70;;
53931;SDS011;39844;52.496;13.482;2023-05-07T07:22:35;2.87;;;2.40;;
53931;SDS011;39844;52.496;13.482;2023-05-07T07:25:00;2.87;;;2.67;;
53931;SDS011;39844;52.496;13.482;2023-05-07T07:27:26;3.87;;;2.63;;
53931;SDS011;39844;52.496;13.482;2023-05-07T07:29:51;5.03;;;2.53;;
53931;SDS011;39844;52.496;13.482;2023-05-07T07:32:16;2.80;;;2.60;;
53931;SDS011;39844;52.496;13.482;2023-05-07T07:34:42;2.80;;;2.33;;
53931;SDS011;39844;52.496;13.482;2023-05-07T07:37:09;2.80;;;2.60;;
53931;SDS011;39844;52.496;13.482;2023-05-07T07:39:34;3.10;;;2.70;;
53931;SDS011;39844;52.496;13.482;2023-05-07T07:42:00;2.67;;;2.43;;
53931;SDS011;39844;52.496;13.482;2023-05-07T07:44:27;3.47;;;2.33;;
53931;SDS011;39844;52.496;13.482;2023-05-07T07:46:53;2.67;;;2.37;;
53931;SDS011;39844;52.496;13.482;2023-05-07T07:49:18;2.60;;;2.20;;
53931;SDS011;39844;52.496;13.482;2023-05-07T07:51:43;3.50;;;2.43;;
53931;SDS011;39844;52.496;13.482;2023-05-07T07:54:09;2.80;;;2.40;;
53931;SDS011;39844;52.496;13.482;2023-05-07T07:56:34;2.40;;;2.20;;
53931;SDS011;39844;52.496;13.482;2023-05-07T07:59:00;2.20;;;2.10;;
53931;SDS011;39844;52.496;13.482;2023-05-07T08:01:25;7.00;;;2.67;;
53931;SDS011;39844;52.496;13.482;2023-05-07T08:03:51;2.47;;;2.30;;
53931;SDS011;39844;52.496;13.482;2023-05-07T08:06:16;4.30;;;3.17;;
53931;SDS011;39844;52.496;13.482;2023-05-07T08:08:41;2.10;;;2.00;;
53931;SDS011;39844;52.496;13.482;2023-05-07T08:11:09;2.70;;;2.50;;
53931;SDS011;39844;52.496;13.482;2023-05-07T08:13:38;2.13;;;1.97;;
53931;SDS011;39844;52.496;13.482;2023-05-07T08:16:05;2.37;;;2.20;;
53931;SDS011;39844;52.496;13.482;2023-05-07T08:18:33;4.50;;;2.40;;
53931;SDS011;39844;52.496;13.482;2023-05-07T08:21:03;4.73;;;2.20;;
53931;SDS011;39844;52.496;13.482;2023-05-07T08:23:30;2.27;;;1.90;;
53931;SDS011;39844;52.496;13.482;2023-05-07T08:25:59;3.40;;;2.30;;
53931;SDS011;39844;52.496;13.482;2023-05-07T08:28:25;3.50;;;2.20;;
53931;SDS011;39844;52.496;13.482;2023-05-07T08:30:51;2.07;;;1.93;;
53931;SDS011;39844;52.496;13.482;2023-05-07T08:33:18;2.40;;;2.20;;
53931;SDS011;39844;52.496;13.482;2023-05-07T08:35:46;2.00;;;1.90;;
53931;SDS011;39844;52.496;13.482;2023-05-07T08:38:17;2.13;;;2.03;;
53931;SDS011;39844;52.496;13.482;2023-05-07T08:40:45;2.30;;;2.10;;
53931;SDS011;39844;52.496;13.482;2023-05-07T08:43:13;3.70;;;2.13;;
53931;SDS011;39844;52.496;13.482;2023-05-07T08:45:42;2.33;;;2.10;;
53931;SDS011;39844;52.496;13.482;2023-05-07T08:48:16;1.87;;;1.77;;
53931;SDS011;39844;52.496;13.482;2023-05-07T08:50:50;1.93;;;1.80;;
53931;SDS011;39844;52.496;13.482;2023-05-07T08:53:15;1.97;;;1.87;;
53931;SDS011;39844;52.496;13.482;2023-05-07T08:55:42;3.40;;;2.40;;
53931;SDS011;39844;52.496;13.482;2023-05-07T08:58:14;2.17;;;2.07;;
53931;SDS011;39844;52.496;13.482;2023-05-07T09:00:42;1.97;;;1.80;;
53931;SDS011;39844;52.496;13.482;2023-05-07T09:03:10;2.17;;;1.97;;
53931;SDS011;39844;52.496;13.482;2023-05-07T09:05:35;2.13;;;1.93;;
53931;SDS011;39844;52.496;13.482;2023-05-07T09:08:04;2.33;;;2.13;;
53931;SDS011;39844;52.496;13.482;2023-05-07T09:10:35;2.40;;;2.20;;
53931;SDS011;39844;52.496;13.482;2023-05-07T09:13:00;2.50;;;1.93;;
53931;SDS011;39844;52.496;13.482;2023-05-07T09:15:30;2.30;;;2.10;;
53931;SDS011;39844;52.496;13.482;2023-05-07T09:18:03;4.47;;;2.00;;
53931;SDS011;39844;52.496;13.482;2023-05-07T09:20:31;1.97;;;1.87;;
53931;SDS011;39844;52.496;13.482;2023-05-07T09:22:57;2.77;;;1.90;;
53931;SDS011;39844;52.496;13.482;2023-05-07T09:25:28;2.77;;;2.00;;
53931;SDS011;39844;52.496;13.482;2023-05-07T09:27:55;1.90;;;1.80;;
53931;SDS011;39844;52.496;13.482;2023-05-07T09:30:45;2.53;;;2.00;;
53931;SDS011;39844;52.496;13.482;2023-05-07T09:33:13;3.47;;;2.17;;
53931;SDS011;39844;52.496;13.482;2023-05-07T09:35:42;2.13;;;1.90;;
53931;SDS011;39844;52.496;13.482;2023-05-07T09:38:07;2.23;;;1.80;;
53931;SDS011;39844;52.496;13.482;2023-05-07T09:40:33;1.87;;;1.77;;
53931;SDS011;39844;52.496;13.482;2023-05-07T09:43:11;1.80;;;1.70;;
53931;SDS011;39844;52.496;13.482;2023-05-07T09:45:38;2.50;;;2.00;;
53931;SDS011;39844;52.496;13.482;2023-05-07T09:48:04;1.50;;;1.40;;
53931;SDS011;39844;52.496;13.482;2023-05-07T09:50:38;2.80;;;1.70;;
53931;SDS011;39844;52.496;13.482;2023-05-07T09:53:12;2.37;;;1.83;;
53931;SDS011;39844;52.496;13.482;2023-05-07T09:55:41;1.70;;;1.60;;
53931;SDS011;39844;52.496;13.482;2023-05-07T09:58:11;2.30;;;1.37;;
53931;SDS011;39844;52.496;13.482;2023-05-07T10:00:42;3.97;;;1.77;;
53931;SDS011;39844;52.496;13.482;2023-05-07T10:03:08;1.60;;;1.50;;
53931;SDS011;39844;52.496;13.482;2023-05-07T10:05:38;1.30;;;1.20;;
53931;SDS011;39844;52.496;13.482;2023-05-07T10:08:03;2.20;;;1.20;;
53931;SDS011;39844;52.496;13.482;2023-05-07T10:10:30;1.30;;;1.30;;
53931;SDS011;39844;52.496;13.482;2023-05-07T10:12:57;1.70;;;1.60;;
53931;SDS011;39844;52.496;13.482;2023-05-07T10:15:23;1.70;;;1.60;;
53931;SDS011;39844;52.496;13.482;2023-05-07T10:17:49;1.37;;;1.27;;
53931;SDS011;39844;52.496;13.482;2023-05-07T10:20:16;1.70;;;1.47;;
53931;SDS011;39844;52.496;13.482;2023-05-07T10:22:43;1.90;;;1.20;;
53931;SDS011;39844;52.496;13.482;2023-05-07T10:25:20;1.93;;;1.40;;
53931;SDS011;39844;52.496;13.482;2023-05-07T10:27:50;1.70;;;1.60;;
53931;SDS011;39844;52.496;13.482;2023-05-07T10:32:47;1.30;;;1.27;;
53931;SDS011;39844;52.496;13.482;2023-05-07T10:35:19;1.23;;;1.23;;
53931;SDS011;39844;52.496;13.482;2023-05-07T10:37:48;1.40;;;1.30;;
53931;SDS011;39844;52.496;13.482;2023-05-07T10:40:14;1.10;;;1.10;;
53931;SDS011;39844;52.496;13.482;2023-05-07T10:42:52;1.10;;;1.10;;
53931;SDS011;39844;52.496;13.482;2023-05-07T10:45:18;1.30;;;1.20;;
53931;SDS011;39844;52.496;13.482;2023-05-07T10:50:32;1.23;;;1.13;;
53931;SDS011;39844;52.496;13.482;2023-05-07T10:55:45;1.60;;;1.50;;
53931;SDS011;39844;52.496;13.482;2023-05-07T11:00:46;2.30;;;1.10;;
53931;SDS011;39844;52.496;13.482;2023-05-07T11:03:12;1.57;;;1.43;;
53931;SDS011;39844;52.496;13.482;2023-05-07T11:05:38;1.10;;;1.10;;
53931;SDS011;39844;52.496;13.482;2023-05-07T11:08:04;1.30;;;1.20;;
53931;SDS011;39844;52.496;13.482;2023-05-07T11:13:14;1.27;;;1.17;;
53931;SDS011;39844;52.496;13.482;2023-05-07T11:15:48;1.23;;;1.23;;
53931;SDS011;39844;52.496;13.482;2023-05-07T11:18:16;1.37;;;1.27;;
53931;SDS011;39844;52.496;13.482;2023-05-07T11:20:52;1.10;;;1.10;;
53931;SDS011;39844;52.496;13.482;2023-05-07T11:26:03;1.50;;;1.40;;
53931;SDS011;39844;52.496;13.482;2023-05-07T11:28:30;1.10;;;1.10;;
53931;SDS011;39844;52.496;13.482;2023-05-07T11:30:56;1.13;;;1.13;;
53931;SDS011;39844;52.496;13.482;2023-05-07T11:33:22;1.30;;;1.30;;
53931;SDS011;39844;52.496;13.482;2023-05-07T11:35:48;2.00;;;1.40;;
53931;SDS011;39844;52.496;13.482;2023-05-07T11:38:15;1.43;;;1.43;;
53931;SDS011;39844;52.496;13.482;2023-05-07T11:40:50;1.23;;;1.13;;
53931;SDS011;39844;52.496;13.482;2023-05-07T11:43:22;2.60;;;1.53;;
53931;SDS011;39844;52.496;13.482;2023-05-07T11:45:47;2.60;;;1.60;;
53931;SDS011;39844;52.496;13.482;2023-05-07T11:48:14;1.17;;;1.17;;
53931;SDS011;39844;52.496;13.482;2023-05-07T11:53:26;1.52;;;1.42;;
53931;SDS011;39844;52.496;13.482;2023-05-07T11:55:53;2.40;;;1.48;;
53931;SDS011;39844;52.496;13.482;2023-05-07T11:58:20;1.50;;;1.40;;
53931;SDS011;39844;52.496;13.482;2023-05-07T12:00:50;1.50;;;1.23;;
53931;SDS011;39844;52.496;13.482;2023-05-07T12:03:16;1.10;;;1.10;;
53931;SDS011;39844;52.496;13.482;2023-05-07T12:05:42;2.03;;;1.17;;
53931;SDS011;39844;52.496;13.482;2023-05-07T12:08:07;2.77;;;1.30;;
53931;SDS011;39844;52.496;13.482;2023-05-07T12:10:33;1.20;;;1.20;;
53931;SDS011;39844;52.496;13.482;2023-05-07T12:12:58;1.27;;;1.27;;
53931;SDS011;39844;52.496;13.482;2023-05-07T12:15:23;1.17;;;1.17;;
53931;SDS011;39844;52.496;13.482;2023-05-07T12:17:49;1.20;;;1.20;;
53931;SDS011;39844;52.496;13.482;2023-05-07T12:20:14;1.67;;;1.50;;
53931;SDS011;39844;52.496;13.482;2023-05-07T12:22:40;1.13;;;1.13;;
53931;SDS011;39844;52.496;13.482;2023-05-07T12:25:06;2.20;;;1.40;;
53931;SDS011;39844;52.496;13.482;2023-05-07T12:27:31;1.40;;;1.30;;
53931;SDS011;39844;52.496;13.482;2023-05-07T12:29:57;1.00;;;1.00;;
53931;SDS011;39844;52.496;13.482;2023-05-07T12:32:23;1.23;;;1.17;;
53931;SDS011;39844;52.496;13.482;2023-05-07T12:34:51;1.00;;;1.00;;
53931;SDS011;39844;52.496;13.482;2023-05-07T12:37:16;1.20;;;1.20;;
53931;SDS011;39844;52.496;13.482;2023-05-07T12:39:47;1.33;;;1.13;;
53931;SDS011;39844;52.496;13.482;2023-05-07T12:42:16;1.10;;;1.00;;
53931;SDS011;39844;52.496;13.482;2023-05-07T12:44:45;0.90;;;0.90;;
53931;SDS011;39844;52.496;13.482;2023-05-07T12:47:11;1.02;;;1.02;;
53931;SDS011;39844;52.496;13.482;2023-05-07T12:49:36;1.42;;;1.33;;
53931;SDS011;39844;52.496;13.482;2023-05-07T12:52:02;1.38;;;1.08;;
53931;SDS011;39844;52.496;13.482;2023-05-07T12:54:30;2.03;;;1.17;;
53931;SDS011;39844;52.496;13.482;2023-05-07T12:57:00;1.00;;;1.00;;
53931;SDS011;39844;52.496;13.482;2023-05-07T12:59:31;1.00;;;1.00;;
53931;SDS011;39844;52.496;13.482;2023-05-07T13:02:03;0.90;;;0.90;;
53931;SDS011;39844;52.496;13.482;2023-05-07T13:04:28;1.00;;;1.00;;
53931;SDS011;39844;52.496;13.482;2023-05-07T13:06:54;1.33;;;1.23;;
53931;SDS011;39844;52.496;13.482;2023-05-07T13:09:19;3.63;;;0.98;;
53931;SDS011;39844;52.496;13.482;2023-05-07T13:11:44;1.20;;;1.20;;
53931;SDS011;39844;52.496;13.482;2023-05-07T13:14:10;0.88;;;0.88;;
53931;SDS011;39844;52.496;13.482;2023-05-07T13:16:35;1.00;;;1.00;;
53931;SDS011;39844;52.496;13.482;2023-05-07T13:19:00;0.90;;;0.90;;
53931;SDS011;39844;52.496;13.482;2023-05-07T13:21:25;1.02;;;1.00;;
53931;SDS011;39844;52.496;13.482;2023-05-07T13:23:51;1.10;;;1.10;;
53931;SDS011;39844;52.496;13.482;2023-05-07T13:26:16;1.08;;;1.08;;
53931;SDS011;39844;52.496;13.482;2023-05-07T13:28:41;0.90;;;0.90;;
53931;SDS011;39844;52.496;13.482;2023-05-07T13:31:06;1.20;;;1.15;;
53931;SDS011;39844;52.496;13.482;2023-05-07T13:33:32;0.90;;;0.90;;
53931;SDS011;39844;52.496;13.482;2023-05-07T13:35:57;1.95;;;1.20;;
53931;SDS011;39844;52.496;13.482;2023-05-07T13:38:22;1.30;;;1.23;;
53931;SDS011;39844;52.496;13.482;2023-05-07T13:40:48;1.00;;;1.00;;
53931;SDS011;39844;52.496;13.482;2023-05-07T13:43:13;1.00;;;1.00;;
53931;SDS011;39844;52.496;13.482;2023-05-07T13:45:38;1.02;;;1.02;;
53931;SDS011;39844;52.496;13.482;2023-05-07T13:48:04;1.15;;;1.10;;
53931;SDS011;39844;52.496;13.482;2023-05-07T13:50:29;0.90;;;0.90;;
53931;SDS011;39844;52.496;13.482;2023-05-07T13:52:54;1.88;;;1.00;;
53931;SDS011;39844;52.496;13.482;2023-05-07T13:55:20;1.20;;;1.20;;
53931;SDS011;39844;52.496;13.482;2023-05-07T13:57:46;3.50;;;1.20;;
53931;SDS011;39844;52.496;13.482;2023-05-07T14:00:12;1.95;;;1.20;;
53931;SDS011;39844;52.496;13.482;2023-05-07T14:02:38;1.42;;;1.20;;
53931;SDS011;39844;52.496;13.482;2023-05-07T14:05:04;1.20;;;1.10;;
53931;SDS011;39844;52.496;13.482;2023-05-07T14:07:30;1.13;;;1.13;;
53931;SDS011;39844;52.496;13.482;2023-05-07T14:09:56;1.42;;;1.30;;
53931;SDS011;39844;52.496;13.482;2023-05-07T14:12:21;1.38;;;1.15;;
53931;SDS011;39844;52.496;13.482;2023-05-07T14:14:47;1.00;;;1.00;;
53931;SDS011;39844;52.496;13.482;2023-05-07T14:17:12;1.17;;;1.17;;
53931;SDS011;39844;52.496;13.482;2023-05-07T14:19:37;1.48;;;1.40;;
53931;SDS011;39844;52.496;13.482;2023-05-07T14:22:03;1.30;;;1.20;;
53931;SDS011;39844;52.496;13.482;2023-05-07T14:24:28;1.10;;;1.10;;
53931;SDS011;39844;52.496;13.482;2023-05-07T14:26:53;2.00;;;1.20;;
53931;SDS011;39844;52.496;13.482;2023-05-07T14:29:19;1.10;;;1.10;;
53931;SDS011;39844;52.496;13.482;2023-05-07T14:31:44;1.13;;;1.00;;
53931;SDS011;39844;52.496;13.482;2023-05-07T14:34:10;1.00;;;1.00;;
53931;SDS011;39844;52.496;13.482;2023-05-07T14:36:35;1.73;;;0.90;;
53931;SDS011;39844;52.496;13.482;2023-05-07T14:39:00;1.20;;;1.13;;
53931;SDS011;39844;52.496;13.482;2023-05-07T14:41:26;1.30;;;1.17;;
53931;SDS011;39844;52.496;13.482;2023-05-07T14:43:51;1.10;;;1.00;;
53931;SDS011;39844;52.496;13.482;2023-05-07T14:46:17;1.20;;;1.20;;